テルアビブ / ベン・グリオン の空港の天気 - METARとTAF

ベン・グリオン国際空港(テルアビブ) ( LLBG / TLV ) - イスラエル ロード / テルアビブ
飛行場実況気象(Metar)
観測時間10/21 18:20 IDT (10/21 15:20 UTC)
風向・風速北 8m/s
視程10km以上
天気現象
少しの雲 雲底高度 910m
気温26℃
湿度65%
気圧1017hPa
METARLLBG 211520Z 35015KT 9999 FEW030 26/19 Q1017 NOSIG
過去の天気等 Google飛行場航空写真 Wunderground天気予報

過去48時間のMETAR

飛行場予報(TAF)
発表時間: 10/21 14:04 IDT (10/21 11:04 UTC)
予報対象時間: 21日15時 IDT ~ 22日15時 IDT
風向・風速北北西 7m/s
視程10km以上
全天の4割程度の雲 雲底高度 1070m
21日18時 IDT ~ 21日20時 IDT に徐々に
風向・風速北北東 3m/s
視程10km以上
なし
22日2時 IDT ~ 22日9時 IDT に一時的に
風向・風速不定 2m/s
22日9時 IDT ~ 22日11時 IDT に徐々に
風向・風速北西 5m/s
TAF LLBG 211104Z 2112/2212 33014KT 9999 SCT035
BECMG 2115/2117 02005KT CAVOK
TEMPO 2123/2206 VRB03KT
BECMG 2206/2208 32010KT TX29/2112Z TN22/2203Z